x

Pt Arena - 19nm North Of Point Arena, Ca (46014) Wave Buoy

9:50am - Sun 23rd Nov 2014 All times are PST. -8 hours from GMT.

  • Sig Wave height 13.1ft
  • Peak Period 13s
  • Average Period 10s
  • Wind
    9mph
  • Sea Temp 60°f
  • Air Temp 56°f
  • Sea Pressure 1028.2mb
  • Pt Arena - 19nm North Of Point Arena, Ca
  • Pt Arena - 19nm North Of Point Arena, Ca

More Historic Weather Station data

Upgrade to MSW Pro to gain access to the past 30 days of data for over 8000 Wavebouys and Weather Stations around the globe.

Join Pro

Comparision Forecast

View Surf forecast
   
Sun 11/23 9:50am 13ft 13s 10s 9
mph
1028.2mb 60f 56f
8:50am 11.5ft 13s 10s 4 7 mph 1028.2mb 60f 55f
7:50am 11ft 14s 10s 7 11 mph 1027.5mb 60f 55f
6:50am 11.5ft 14s 10s 9 11 mph 1027.6mb 60f 56f
5:50am 10ft 14s 9s 9
mph
1027.5mb 60f 55f
4:50am 10ft 15s 9s 7 9 mph 1027.1mb 60f 55f
3:50am 11.5ft 15s 10s 9 11 mph 1027.2mb 60f 56f
2:50am 11ft 15s 10s 11 13 mph 1027.1mb 60f 57f
1:50am 10.5ft 14s 10s 7 9 mph 1026.3mb 60f 56f
12:50am 10ft 15s 9s 7 9 mph 1026.2mb 60f 57f
Sat 11/22 11:50pm 11.5ft 16s 10s 9 11 mph 1026.3mb 60f 57f
10:50pm 12ft 14s 9s 13 16 mph 1026.1mb 60f 58f
9:50pm 11.5ft 12s 8s 13 16 mph 1026mb 60f 58f
8:50pm 12ft 12s 8s 18 22 mph 1025.5mb 60f 59f
7:50pm  -   -   -  20 25 mph 1024.5mb 60f 59f
6:50pm  -   -   -  22 29 mph 1023.7mb 60f 59f
5:50pm 12ft 13s 8s 22 29 mph 1023.2mb 60f 59f
4:50pm 12ft 11s 9s 20 25 mph 1022.9mb 60f 59f
3:50pm 11.5ft 11s 9s 22 25 mph 1022.6mb 60f 60f
2:50pm 11ft 12s 8s 16 20 mph 1022.3mb 60f 60f
1:50pm 10.5ft 11s 8s 18 22 mph 1021.7mb 60f 60f
12:50pm 11ft 12s 8s 16 20 mph 1020.7mb 60f 60f
11:50am  -   -   -  16
mph
1020.8mb - 60f
10:50am 9.5ft 10s 8s 16 18 mph 1020.3mb 60f 60f
9:50am 9ft 11s 8s 18 22 mph 1019.3mb 60f 61f
8:50am 10ft 10s 8s 11 16 mph 1018.4mb 60f 61f
7:50am 9ft 11s 8s 9 13 mph 1017.4mb 60f 60f
6:50am 9.5ft 11s 8s 4 7 mph 1016.8mb 60f 59f
5:50am 9ft 11s 7s 9 11 mph 1016.3mb 60f 59f
4:50am 9.5ft 11s 8s 13 18 mph 1015.7mb 60f 60f
2:50am 8.5ft 11s 7s 20 22 mph 1015.2mb 60f 61f
12:50am 8ft 11s 7s 18 22 mph 1015.5mb 60f 61f
Fri 11/21 11:50pm 8.5ft 10s 7s 18 20 mph 1016mb 60f 61f
10:50pm 9.5ft 11s 7s 18 20 mph 1016.5mb 60f 59f
9:50pm 8ft 11s 6s 27 34 mph 1016.2mb 60f 58f
8:50pm 10ft 11s 7s 29 36 mph 1015.8mb 59f 58f
7:50pm 9.5ft 12s 7s 27 31 mph 1016.5mb 58f 57f
6:50pm 9.5ft 11s 7s 22 29 mph 1017mb 58f 57f
5:50pm 9ft 11s 7s 22 29 mph 1017mb 58f 57f
4:50pm 8.5ft 12s 7s 22 27 mph 1016.9mb 59f 57f
3:50pm 11ft 12s 8s 20 25 mph 1017.1mb 59f 57f
2:50pm 9.5ft 14s 8s 18 25 mph 1017.2mb 60f 57f
1:50pm 10.5ft 12s 8s 18 22 mph 1017.6mb 60f 57f
12:50pm 9.5ft 13s 8s 20 22 mph 1017.9mb 60f 57f
11:50am 10ft 14s 8s 20 25 mph 1017.8mb 60f 57f
10:50am 10.5ft 12s 8s 20 25 mph 1018.3mb 60f 58f
9:50am  -   -   -  16 20 mph 1018.6mb 60f 57f
8:50am 9.5ft 10s 8s 16 20 mph 1018.1mb 60f 57f
7:50am  -   -   -  16 18 mph 1018.1mb 60f 57f
6:50am 9ft 10s 8s 13 18 mph 1017.6mb 60f 57f
5:50am  -   -   -  11 16 mph 1017.3mb 60f 55f
4:50am  -   -   -  11 13 mph 1017.3mb 60f 55f
2:50am 8ft 14s 8s 11 13 mph 1017.2mb 60f 57f
1:50am  -   -   -  9 13 mph 1017.3mb 60f 57f
12:50am 9ft 10s 8s 11 13 mph 1017.1mb 60f 55f
Thu 11/20 11:50pm 7.5ft 11s 8s 9 13 mph 1017.2mb 60f 56f
10:50pm 9ft 15s 8s 9 13 mph 1017.5mb 60f 56f
9:50pm  -   -   -  9 11 mph 1017.1mb 60f 57f
8:50pm 8ft 11s 7s 11 13 mph 1016.6mb 60f 58f
7:50pm 7.5ft 11s 7s 11 16 mph 1016.2mb 60f 58f
6:50pm 7.5ft 10s 7s 13 16 mph 1015.7mb 60f 58f
5:50pm  -   -   -  16
mph
1015.1mb - 58f
4:50pm 8ft 10s 8s 13 18 mph 1015.6mb 60f 58f
3:50pm  -   -   -  11 16 mph 1015.5mb 60f 58f
2:50pm 8ft 10s 8s 11 16 mph 1015.1mb 60f 58f
1:50pm  -   -   -  16 20 mph 1014.9mb 60f 58f
12:50pm 8ft 11s 7s 20 22 mph 1014.9mb 60f 56f
11:50am 8ft 11s 7s 20 25 mph 1015mb 60f 57f
10:50am 9.5ft 11s 7s 22 27 mph 1015.4mb 60f 55f
8:50am  -   -   -  18 22 mph 1017.2mb 61f 56f
7:50am  -   -   -  16 20 mph 1017.7mb 61f 56f
6:50am  -   -   -  18 22 mph 1017.5mb 61f 57f
5:50am 13ft 11s 8s 16 20 mph 1017.5mb 61f 58f
4:50am 13ft 11s 8s 9 16 mph 1017.4mb 61f 57f
3:50am  -   -   -  13 18 mph 1017.7mb 61f 58f
2:50am  -   -   -  13 16 mph 1018.6mb 61f 59f
1:50am 14ft 11s 9s 4 9 mph 1018.9mb 61f 59f
12:50am  -   -   -  4 9 mph 1019.7mb 61f 59f
Wed 11/19 11:50pm 12ft 11s 9s 4 9 mph 1019.9mb 61f 60f
10:50pm  -   -   -  4 9 mph 1020.1mb 61f 60f
9:50pm 11ft 13s 9s 4
mph
1019.3mb 61f 60f
8:50pm 9.5ft 12s 9s 7 9 mph 1019.3mb 61f 60f
7:50pm 9ft 13s 9s 9 13 mph 1019.3mb 61f 60f